createdAt,value
2023-05-08T00:01:31.190Z,84.80
2023-05-08T00:03:58.418Z,84.90
2023-05-08T00:06:25.616Z,84.70
2023-05-08T00:08:52.452Z,84.80
2023-05-08T00:11:19.350Z,84.80
2023-05-08T00:13:46.131Z,84.90
2023-05-08T00:16:13.209Z,84.90
2023-05-08T00:18:40.386Z,85.10
2023-05-08T00:21:07.286Z,85.20
2023-05-08T00:23:34.733Z,85.30
2023-05-08T00:26:01.667Z,85.40
2023-05-08T00:28:28.505Z,85.20
2023-05-08T00:31:02.025Z,85.30
2023-05-08T00:33:28.948Z,86.30
2023-05-08T00:36:05.775Z,85.40
2023-05-08T00:38:33.973Z,85.60
2023-05-08T00:41:01.812Z,85.70
2023-05-08T00:43:28.940Z,85.80
2023-05-08T00:46:01.406Z,85.70
2023-05-08T00:48:32.042Z,85.80
2023-05-08T00:51:04.551Z,85.80
2023-05-08T00:53:33.837Z,85.80
2023-05-08T00:56:03.849Z,85.80
2023-05-08T00:58:32.505Z,85.90
2023-05-08T01:01:00.794Z,85.90
2023-05-08T01:03:28.729Z,85.90
2023-05-08T01:05:57.599Z,85.90
2023-05-08T01:08:27.384Z,85.90
2023-05-08T01:10:54.092Z,85.90
2023-05-08T01:13:40.617Z,86.00
2023-05-08T01:16:16.418Z,86.10
2023-05-08T01:18:51.166Z,86.10
2023-05-08T01:21:34.615Z,86.10
2023-05-08T01:24:24.770Z,86.10
2023-05-08T01:27:43.853Z,86.10
2023-05-08T01:30:48.259Z,85.80
2023-05-08T01:33:25.553Z,86.00
2023-05-08T01:36:15.115Z,86.00
2023-05-08T01:39:13.431Z,86.20
2023-05-08T01:41:45.741Z,86.10
2023-05-08T01:44:24.736Z,86.30
2023-05-08T01:46:52.401Z,86.20
2023-05-08T01:49:34.510Z,86.40
2023-05-08T01:52:07.475Z,86.40
2023-05-08T01:54:41.282Z,86.50
2023-05-08T01:57:13.441Z,86.60
2023-05-08T01:59:43.100Z,86.70
2023-05-08T02:02:11.186Z,86.80
2023-05-08T02:04:39.881Z,86.90
2023-05-08T02:07:08.088Z,87.00
2023-05-08T02:09:35.624Z,87.00
2023-05-08T02:12:03.808Z,87.00
2023-05-08T02:14:32.915Z,87.00
2023-05-08T02:17:01.411Z,87.00
2023-05-08T02:19:29.794Z,87.20
2023-05-08T02:21:58.852Z,87.30
2023-05-08T02:24:26.432Z,87.30
2023-05-08T02:26:57.428Z,87.50
2023-05-08T02:29:25.322Z,87.50
2023-05-08T02:31:54.402Z,87.60
2023-05-08T02:34:23.442Z,87.70
2023-05-08T02:36:52.636Z,87.80
2023-05-08T02:39:21.603Z,87.90
2023-05-08T02:41:48.982Z,87.90
2023-05-08T02:44:17.102Z,87.90
2023-05-08T02:46:58.016Z,88.00
2023-05-08T02:49:33.394Z,87.90
2023-05-08T02:52:14.400Z,88.00
2023-05-08T02:54:55.721Z,88.00
2023-05-08T02:57:33.387Z,88.10
2023-05-08T03:00:11.605Z,88.20
2023-05-08T03:02:43.209Z,88.20
2023-05-08T03:05:19.245Z,88.30
2023-05-08T03:07:50.184Z,88.40
2023-05-08T03:10:19.657Z,88.40
2023-05-08T03:12:49.708Z,88.50
2023-05-08T03:15:26.964Z,88.60
2023-05-08T03:17:58.844Z,88.50
2023-05-08T03:20:29.560Z,88.60
2023-05-08T03:22:57.184Z,88.70
2023-05-08T03:25:24.712Z,88.80
2023-05-08T03:27:53.044Z,88.80
2023-05-08T03:30:20.621Z,89.00
2023-05-08T03:32:52.005Z,89.00
2023-05-08T03:35:19.753Z,89.10
2023-05-08T03:37:46.690Z,89.10
2023-05-08T03:40:13.986Z,89.20
2023-05-08T03:42:42.597Z,89.20
2023-05-08T03:45:10.821Z,89.20
2023-05-08T03:47:38.188Z,89.30
2023-05-08T03:50:06.065Z,89.40
2023-05-08T03:52:32.843Z,89.50
2023-05-08T03:54:59.703Z,89.50
2023-05-08T03:57:31.341Z,89.50
2023-05-08T04:00:03.514Z,89.60
2023-05-08T04:02:43.134Z,89.60
2023-05-08T04:05:26.124Z,89.60
2023-05-08T04:08:37.002Z,89.70
2023-05-08T04:11:18.130Z,89.00
2023-05-08T04:13:54.214Z,89.60
2023-05-08T04:16:27.131Z,89.70
2023-05-08T04:18:59.800Z,89.80
2023-05-08T04:21:29.065Z,89.80
2023-05-08T04:23:58.364Z,89.90
2023-05-08T04:26:26.014Z,90.00
2023-05-08T04:28:53.358Z,90.00
2023-05-08T04:31:20.836Z,90.00
2023-05-08T04:33:48.059Z,90.00
2023-05-08T04:36:14.940Z,90.10
2023-05-08T04:38:41.872Z,90.10
2023-05-08T04:41:08.844Z,90.10
2023-05-08T04:43:36.746Z,90.20
2023-05-08T04:46:05.464Z,90.20
2023-05-08T04:48:33.857Z,90.20
2023-05-08T04:51:01.092Z,90.30
2023-05-08T04:53:28.128Z,90.30
2023-05-08T04:55:58.652Z,90.30
2023-05-08T04:58:25.412Z,90.30
2023-05-08T05:00:52.191Z,90.40
2023-05-08T05:03:19.104Z,90.40
2023-05-08T05:05:45.928Z,90.40
2023-05-08T05:08:12.662Z,90.50
2023-05-08T05:10:40.000Z,90.40
2023-05-08T05:13:06.770Z,90.50
2023-05-08T05:15:33.711Z,90.50
2023-05-08T05:18:00.615Z,90.60
2023-05-08T05:20:27.473Z,90.60
2023-05-08T05:22:54.316Z,90.60
2023-05-08T05:25:21.033Z,90.70
2023-05-08T05:27:47.753Z,90.80
2023-05-08T05:30:14.970Z,90.80
2023-05-08T05:32:42.485Z,90.80
2023-05-08T05:35:09.999Z,90.90
2023-05-08T05:37:37.320Z,90.90
2023-05-08T05:40:04.568Z,90.90
2023-05-08T05:42:31.633Z,91.00
2023-05-08T05:44:59.157Z,90.90
2023-05-08T05:47:26.072Z,90.90
2023-05-08T05:49:52.820Z,90.90
2023-05-08T05:52:19.593Z,90.90
2023-05-08T05:54:46.701Z,90.90
2023-05-08T05:57:13.952Z,90.90
2023-05-08T05:59:41.116Z,90.90
2023-05-08T06:02:10.502Z,90.90
2023-05-08T06:04:39.928Z,90.90
2023-05-08T06:07:06.598Z,91.00
2023-05-08T06:09:33.364Z,91.00
2023-05-08T06:12:00.110Z,91.00
2023-05-08T06:14:29.665Z,91.00
2023-05-08T06:16:58.951Z,91.00
2023-05-08T06:19:26.215Z,91.00
2023-05-08T06:21:52.944Z,91.00
2023-05-08T06:24:19.710Z,91.00
2023-05-08T06:26:49.617Z,91.10
2023-05-08T06:29:16.675Z,91.10
2023-05-08T06:31:43.570Z,91.10
2023-05-08T06:34:10.596Z,91.10
2023-05-08T06:36:37.645Z,91.10
2023-05-08T06:39:06.164Z,91.10
2023-05-08T06:41:32.973Z,91.10
2023-05-08T06:43:59.799Z,91.10
2023-05-08T06:46:26.687Z,91.10
2023-05-08T06:48:54.648Z,91.10
2023-05-08T06:51:23.260Z,91.10
2023-05-08T06:53:50.368Z,91.00
2023-05-08T06:56:18.234Z,91.10
2023-05-08T06:59:00.600Z,91.10
2023-05-08T07:01:36.210Z,91.20
2023-05-08T07:04:03.354Z,91.20
2023-05-08T07:06:34.295Z,91.20
2023-05-08T07:09:01.156Z,91.20
2023-05-08T07:11:27.876Z,91.20
2023-05-08T07:13:54.645Z,91.10
2023-05-08T07:16:21.472Z,91.20
2023-05-08T07:18:48.351Z,91.20
2023-05-08T07:21:15.951Z,91.10
2023-05-08T07:23:42.700Z,91.20
2023-05-08T07:26:09.446Z,91.10
2023-05-08T07:28:38.851Z,91.10
2023-05-08T07:31:07.244Z,91.10
2023-05-08T07:33:34.669Z,91.10
2023-05-08T07:36:01.910Z,91.10
2023-05-08T07:38:28.653Z,91.40
2023-05-08T07:40:57.576Z,91.00
2023-05-08T07:43:24.605Z,90.90
2023-05-08T07:45:54.136Z,90.90
2023-05-08T07:48:21.321Z,90.90
2023-05-08T07:50:50.333Z,90.90
2023-05-08T07:53:17.551Z,90.90
2023-05-08T07:55:44.345Z,90.90
2023-05-08T07:58:11.152Z,90.80
2023-05-08T08:00:38.046Z,90.80
2023-05-08T08:03:04.977Z,90.90
2023-05-08T08:05:32.059Z,90.80
2023-05-08T08:07:58.959Z,90.50
2023-05-08T08:10:26.005Z,90.30
2023-05-08T08:12:52.922Z,90.30
2023-05-08T08:15:19.938Z,90.30
2023-05-08T08:17:46.951Z,90.20
2023-05-08T08:20:13.864Z,90.00
2023-05-08T08:22:40.686Z,89.80
2023-05-08T08:25:08.169Z,89.30
2023-05-08T08:27:35.160Z,89.00
2023-05-08T08:30:15.749Z,88.70
2023-05-08T08:32:44.318Z,88.50
2023-05-08T08:35:15.660Z,88.30
2023-05-08T08:37:46.170Z,88.20
2023-05-08T08:40:13.113Z,88.20
2023-05-08T08:42:40.939Z,88.40
2023-05-08T08:45:08.464Z,90.00
2023-05-08T08:47:41.477Z,88.50
2023-05-08T08:50:11.293Z,87.50
2023-05-08T08:53:03.247Z,86.90
2023-05-08T08:55:37.617Z,86.70
2023-05-08T08:58:19.318Z,85.40
2023-05-08T09:00:48.568Z,85.20
2023-05-08T09:03:18.598Z,85.80
2023-05-08T09:05:46.063Z,85.30
2023-05-08T09:08:13.031Z,84.10
2023-05-08T09:10:39.969Z,83.50
2023-05-08T09:13:07.161Z,83.40
2023-05-08T09:15:34.163Z,83.40
2023-05-08T09:18:04.339Z,83.10
2023-05-08T09:20:34.583Z,83.10
2023-05-08T09:23:02.890Z,82.50
2023-05-08T09:25:47.029Z,81.90
2023-05-08T09:28:26.436Z,81.90
2023-05-08T09:30:56.632Z,81.40
2023-05-08T09:33:28.019Z,81.40
2023-05-08T09:35:58.149Z,81.50
2023-05-08T09:38:39.944Z,81.30
2023-05-08T09:41:14.828Z,81.50
2023-05-08T09:43:43.205Z,80.90
2023-05-08T09:46:26.748Z,80.60
2023-05-08T09:48:56.081Z,80.40
2023-05-08T09:51:23.481Z,80.30
2023-05-08T09:53:55.240Z,80.40
2023-05-08T09:56:35.105Z,80.80
2023-05-08T09:59:28.736Z,80.60
2023-05-08T10:01:56.245Z,80.90
2023-05-08T10:04:36.207Z,80.90
2023-05-08T10:07:04.758Z,80.90
2023-05-08T10:09:42.662Z,81.30
2023-05-08T10:12:17.288Z,81.00
2023-05-08T10:14:47.117Z,80.60
2023-05-08T10:17:24.623Z,80.50
2023-05-08T10:20:01.187Z,80.60
2023-05-08T10:22:33.648Z,81.40
2023-05-08T10:25:02.834Z,80.50
2023-05-08T10:27:53.338Z,80.10
2023-05-08T10:30:26.075Z,80.20
2023-05-08T10:32:58.434Z,80.20
2023-05-08T10:35:25.445Z,80.40
2023-05-08T10:37:53.774Z,80.30
2023-05-08T10:40:21.893Z,80.00
2023-05-08T10:42:50.768Z,79.80
2023-05-08T10:45:17.838Z,79.80
2023-05-08T10:48:22.482Z,79.60
2023-05-08T10:51:10.183Z,79.60
2023-05-08T10:53:57.279Z,79.40
2023-05-08T10:56:27.867Z,79.80
2023-05-08T10:59:00.797Z,79.50
2023-05-08T11:01:28.250Z,79.20
2023-05-08T11:03:58.873Z,79.10
2023-05-08T11:06:46.608Z,78.60
2023-05-08T11:09:21.906Z,78.60
2023-05-08T11:12:19.697Z,78.20
2023-05-08T11:15:02.065Z,78.10
2023-05-08T11:17:29.351Z,78.40
2023-05-08T11:20:01.102Z,78.20
2023-05-08T11:22:38.218Z,78.00
2023-05-08T11:25:07.497Z,77.70
2023-05-08T11:27:40.796Z,77.70
2023-05-08T11:30:24.055Z,77.60
2023-05-08T11:33:09.170Z,77.40
2023-05-08T11:35:44.956Z,77.20
2023-05-08T11:38:17.715Z,77.50
2023-05-08T11:41:22.169Z,78.20
2023-05-08T11:44:20.017Z,77.20
2023-05-08T11:46:54.839Z,76.40
2023-05-08T11:49:29.859Z,75.70
2023-05-08T11:51:59.141Z,75.50
2023-05-08T11:54:29.273Z,75.10
2023-05-08T11:56:56.302Z,74.90
2023-05-08T11:59:24.789Z,75.10
2023-05-08T12:02:09.772Z,75.80
2023-05-08T12:05:00.767Z,75.10
2023-05-08T12:07:50.031Z,75.50
2023-05-08T12:10:24.535Z,74.80
2023-05-08T12:13:15.612Z,73.40
2023-05-08T12:15:53.193Z,72.60
2023-05-08T12:18:21.841Z,72.10
2023-05-08T12:20:57.251Z,71.90
2023-05-08T12:23:37.388Z,71.00
2023-05-08T12:26:04.583Z,71.00
2023-05-08T12:28:34.332Z,70.00
2023-05-08T12:31:04.765Z,69.80
2023-05-08T12:33:33.970Z,69.70
2023-05-08T12:36:01.974Z,69.60
2023-05-08T12:44:40.827Z,70.00
2023-05-08T12:52:06.306Z,69.70
2023-05-08T12:55:53.313Z,69.50
2023-05-08T13:05:26.275Z,70.20
2023-05-08T13:07:58.762Z,69.70
2023-05-08T13:10:26.686Z,70.30
2023-05-08T13:12:54.527Z,68.80
2023-05-08T13:15:21.367Z,68.50
2023-05-08T13:18:05.628Z,68.40
2023-05-08T13:20:32.410Z,68.00
2023-05-08T13:25:36.674Z,68.10
2023-05-08T13:28:04.332Z,67.70
2023-05-08T13:30:31.473Z,67.90
2023-05-08T13:32:58.500Z,68.00
2023-05-08T13:35:26.175Z,67.50
2023-05-08T13:37:53.073Z,67.50
2023-05-08T13:40:19.942Z,67.30
2023-05-08T13:42:47.103Z,67.70
2023-05-08T13:45:18.532Z,67.40
2023-05-08T13:47:47.845Z,67.30
2023-05-08T13:50:16.185Z,67.60
2023-05-08T13:52:43.514Z,67.50
2023-05-08T13:55:12.758Z,67.30
2023-05-08T13:57:40.470Z,66.80
2023-05-08T14:00:09.384Z,66.20
2023-05-08T14:02:37.683Z,65.80
2023-05-08T14:05:07.958Z,65.80
2023-05-08T14:07:35.729Z,65.60
2023-05-08T14:10:03.025Z,66.10
2023-05-08T14:12:29.849Z,66.10
2023-05-08T14:14:56.737Z,66.10
2023-05-08T14:17:23.496Z,66.20
2023-05-08T14:19:50.285Z,66.00
2023-05-08T14:22:17.138Z,66.30
2023-05-08T14:24:44.384Z,66.30
2023-05-08T14:27:11.296Z,66.80
2023-05-08T14:29:38.292Z,66.80
2023-05-08T14:32:05.719Z,66.70
2023-05-08T14:34:32.741Z,67.10
2023-05-08T14:37:03.298Z,66.90
2023-05-08T14:39:30.206Z,66.80
2023-05-08T14:42:20.677Z,66.70
2023-05-08T14:44:44.379Z,66.40
2023-05-08T14:47:11.248Z,66.00
2023-05-08T14:49:38.774Z,65.90
2023-05-08T14:52:07.021Z,66.10
2023-05-08T14:54:34.318Z,66.10
2023-05-08T14:57:01.219Z,66.40
2023-05-08T14:59:28.169Z,66.70
2023-05-08T15:01:55.074Z,66.80
2023-05-08T15:04:24.877Z,67.00
2023-05-08T15:06:51.631Z,67.20
2023-05-08T15:09:18.399Z,67.40
2023-05-08T15:11:47.988Z,67.40
2023-05-08T15:14:17.552Z,68.50
2023-05-08T15:16:44.403Z,67.80
2023-05-08T15:19:11.317Z,67.90
2023-05-08T15:21:39.244Z,67.60
2023-05-08T15:24:06.421Z,67.70
2023-05-08T15:26:33.215Z,67.70
2023-05-08T15:29:00.130Z,67.90
2023-05-08T15:31:26.872Z,68.00
2023-05-08T15:33:53.666Z,68.30
2023-05-08T15:36:20.416Z,68.20
2023-05-08T15:38:49.165Z,68.20
2023-05-08T15:41:16.028Z,68.00
2023-05-08T15:43:45.142Z,68.20
2023-05-08T15:46:12.050Z,68.30
2023-05-08T15:48:38.997Z,68.50
2023-05-08T15:51:06.774Z,68.50
2023-05-08T15:53:34.318Z,68.60
2023-05-08T15:56:01.157Z,68.30
2023-05-08T15:58:27.920Z,68.20
2023-05-08T16:00:54.852Z,68.40
2023-05-08T16:03:22.275Z,68.40
2023-05-08T16:05:49.780Z,68.20
2023-05-08T16:08:18.796Z,68.40
2023-05-08T16:10:45.564Z,68.40
2023-05-08T16:13:12.485Z,68.20
2023-05-08T16:15:39.270Z,67.80
2023-05-08T16:18:06.912Z,67.70
2023-05-08T16:20:36.058Z,67.80
2023-05-08T16:23:03.275Z,67.40
2023-05-08T16:25:29.969Z,67.10
2023-05-08T16:27:57.017Z,66.70
2023-05-08T16:30:23.814Z,66.50
2023-05-08T16:32:50.721Z,66.40
2023-05-08T16:35:18.066Z,66.00
2023-05-08T16:37:45.217Z,65.80
2023-05-08T16:40:12.325Z,65.70
2023-05-08T16:42:39.167Z,65.60
2023-05-08T16:45:06.549Z,65.50
2023-05-08T16:47:34.019Z,65.80
2023-05-08T16:50:01.047Z,66.30
2023-05-08T16:52:30.260Z,66.80
2023-05-08T16:54:57.470Z,67.30
2023-05-08T16:57:24.443Z,67.40
2023-05-08T16:59:51.990Z,67.50
2023-05-08T17:02:19.302Z,67.50
2023-05-08T17:04:47.379Z,67.50
2023-05-08T17:07:15.080Z,67.60
2023-05-08T17:09:45.334Z,67.90
2023-05-08T17:12:12.164Z,68.00
2023-05-08T17:14:40.429Z,68.30
2023-05-08T17:17:07.724Z,68.40
2023-05-08T17:19:35.039Z,68.70
2023-05-08T17:22:02.386Z,68.60
2023-05-08T17:24:30.558Z,68.90
2023-05-08T17:26:57.402Z,69.10
2023-05-08T17:29:26.401Z,69.20
2023-05-08T17:31:53.233Z,69.60
2023-05-08T17:34:22.413Z,69.70
2023-05-08T17:36:49.375Z,69.80
2023-05-08T17:39:18.217Z,70.10
2023-05-08T17:41:45.012Z,70.20
2023-05-08T17:44:11.793Z,70.40
2023-05-08T17:46:38.589Z,70.40
2023-05-08T17:49:05.519Z,70.60
2023-05-08T17:51:32.439Z,70.70
2023-05-08T17:53:59.157Z,70.90
2023-05-08T17:56:26.257Z,71.30
2023-05-08T17:58:53.177Z,71.40
2023-05-08T18:01:20.584Z,71.60
2023-05-08T18:03:48.620Z,71.70
2023-05-08T18:06:16.361Z,71.70
2023-05-08T18:08:43.383Z,71.70
2023-05-08T18:11:38.642Z,71.60
2023-05-08T18:14:05.394Z,71.50
2023-05-08T18:16:32.261Z,71.70
2023-05-08T18:19:01.967Z,71.70
2023-05-08T18:21:28.927Z,71.70
2023-05-08T18:23:55.824Z,71.80
2023-05-08T18:26:22.681Z,71.80
2023-05-08T18:28:49.434Z,72.00
2023-05-08T18:31:16.815Z,72.00
2023-05-08T18:33:45.762Z,72.20
2023-05-08T18:36:12.513Z,72.40
2023-05-08T18:38:41.600Z,72.40
2023-05-08T18:41:08.527Z,72.40
2023-05-08T18:43:35.386Z,72.60
2023-05-08T18:46:12.520Z,72.70
2023-05-08T18:48:42.988Z,72.60
2023-05-08T18:51:10.613Z,72.80
2023-05-08T18:53:41.030Z,72.90
2023-05-08T18:56:18.116Z,73.10
2023-05-08T18:58:46.511Z,73.00
2023-05-08T19:01:13.613Z,73.10
2023-05-08T19:03:40.428Z,73.30
2023-05-08T19:06:07.395Z,73.30
2023-05-08T19:08:34.177Z,73.40
2023-05-08T19:11:00.991Z,73.40
2023-05-08T19:13:27.910Z,73.70
2023-05-08T19:15:54.791Z,73.80
2023-05-08T19:18:21.726Z,73.90
2023-05-08T19:20:48.442Z,74.00
2023-05-08T19:23:17.344Z,74.10
2023-05-08T19:25:47.344Z,74.20
2023-05-08T19:28:14.543Z,74.30
2023-05-08T19:30:41.350Z,74.40
2023-05-08T19:33:08.249Z,74.30
2023-05-08T19:35:35.005Z,74.50
2023-05-08T19:38:01.726Z,74.30
2023-05-08T19:40:31.850Z,74.50
2023-05-08T19:42:59.871Z,74.50
2023-05-08T19:45:26.757Z,74.60
2023-05-08T19:47:53.666Z,74.40
2023-05-08T19:50:20.651Z,74.60
2023-05-08T19:52:48.718Z,74.60
2023-05-08T19:55:16.749Z,74.80
2023-05-08T19:57:44.161Z,74.90
2023-05-08T20:00:12.150Z,75.00
2023-05-08T20:02:39.376Z,75.10
2023-05-08T20:07:36.386Z,75.40
2023-05-08T20:10:03.172Z,75.50
2023-05-08T20:12:30.058Z,75.60
2023-05-08T20:14:56.799Z,75.60
2023-05-08T20:17:23.710Z,75.80
2023-05-08T20:19:50.594Z,75.80
2023-05-08T20:22:17.454Z,76.00
2023-05-08T20:24:44.212Z,76.20
2023-05-08T20:27:11.152Z,76.30
2023-05-08T20:29:38.053Z,76.50
2023-05-08T20:32:07.277Z,76.70
2023-05-08T20:34:34.907Z,76.80
2023-05-08T20:37:03.781Z,77.00
2023-05-08T20:39:30.649Z,77.00
2023-05-08T20:41:57.522Z,76.80
2023-05-08T20:44:24.307Z,76.80
2023-05-08T20:46:54.964Z,76.80
2023-05-08T20:49:21.886Z,76.80
2023-05-08T20:51:48.574Z,76.70
2023-05-08T20:54:15.397Z,76.80
2023-05-08T20:56:42.194Z,76.80
2023-05-08T20:59:08.963Z,76.90
2023-05-08T21:01:38.641Z,76.90
2023-05-08T21:04:05.416Z,77.00
2023-05-08T21:06:32.272Z,77.00
2023-05-08T21:08:59.053Z,77.20
2023-05-08T21:11:25.799Z,77.30
2023-05-08T21:13:52.620Z,77.40
2023-05-08T21:16:19.433Z,77.40
2023-05-08T21:18:46.358Z,77.50
2023-05-08T21:21:22.703Z,77.50
2023-05-08T21:23:49.474Z,77.50
2023-05-08T21:26:16.246Z,77.50
2023-05-08T21:28:42.949Z,77.50
2023-05-08T21:31:09.842Z,77.70
2023-05-08T21:33:36.767Z,77.60
2023-05-08T21:36:03.699Z,77.70
2023-05-08T21:38:30.657Z,77.80
2023-05-08T21:40:57.592Z,77.80
2023-05-08T21:43:27.348Z,77.90
2023-05-08T21:45:54.326Z,78.00
2023-05-08T21:48:22.945Z,78.10
2023-05-08T21:50:52.791Z,78.20
2023-05-08T21:53:19.764Z,78.30
2023-05-08T21:55:46.600Z,78.30
2023-05-08T21:58:13.525Z,78.50
2023-05-08T22:00:42.836Z,78.60
2023-05-08T22:03:09.737Z,78.60
2023-05-08T22:05:36.634Z,78.80
2023-05-08T22:08:03.492Z,78.90
2023-05-08T22:10:30.321Z,79.00
2023-05-08T22:13:01.667Z,78.90
2023-05-08T22:15:30.594Z,79.00
2023-05-08T22:17:58.611Z,79.00
2023-05-08T22:20:25.984Z,79.00
2023-05-08T22:22:52.945Z,79.20
2023-05-08T22:25:21.807Z,79.20
2023-05-08T22:27:48.745Z,79.20
2023-05-08T22:30:15.571Z,79.20
2023-05-08T22:32:42.807Z,79.20
2023-05-08T22:35:12.752Z,79.30
2023-05-08T22:37:42.325Z,79.30
2023-05-08T22:40:12.669Z,79.30
2023-05-08T22:42:39.505Z,79.40
2023-05-08T22:45:06.776Z,79.30
2023-05-08T22:47:34.497Z,79.20
2023-05-08T22:50:02.276Z,79.40
2023-05-08T22:52:29.294Z,79.40
2023-05-08T22:54:56.126Z,79.40
2023-05-08T22:57:22.914Z,79.50
2023-05-08T22:59:49.684Z,79.50
2023-05-08T23:02:16.410Z,79.40
2023-05-08T23:04:43.182Z,79.30
2023-05-08T23:07:09.985Z,79.40
2023-05-08T23:09:36.976Z,79.70
2023-05-08T23:12:04.141Z,79.80
2023-05-08T23:14:30.880Z,80.00
2023-05-08T23:16:57.748Z,80.00
2023-05-08T23:19:24.496Z,80.20
2023-05-08T23:21:51.421Z,80.30
2023-05-08T23:24:19.970Z,80.30
2023-05-08T23:26:49.624Z,80.40
2023-05-08T23:29:16.762Z,80.50
2023-05-08T23:31:43.646Z,80.70
2023-05-08T23:34:10.582Z,80.70
2023-05-08T23:36:37.354Z,80.80
2023-05-08T23:39:04.284Z,80.90
2023-05-08T23:41:34.374Z,81.10
2023-05-08T23:44:01.250Z,81.40
2023-05-08T23:46:28.036Z,81.20
2023-05-08T23:48:55.097Z,81.40
2023-05-08T23:51:21.964Z,81.50
2023-05-08T23:53:50.143Z,81.60
2023-05-08T23:56:17.035Z,81.70
2023-05-08T23:58:43.997Z,81.70
